Station Historical Data
Daily Summary for April 8, 2017 Units:  English    Metric   Both
« Previous Day
Next Day »
Daily Weekly Monthly Yearly Custom
  High: Low: Average:
Temperature: 44.7 °F 34.2 °F 38.3 °F
Dew Point: 42.2 °F 31.9 °F 35.9 °F
Humidity: 92 % 90 % 91 %
Wind Speed: 18.0 mph 0.0 mph 2.7 mph
Wind Gust: 19.0 mph - -
Wind:- - SSW
Pressure: 30.26 in 29.85 in -
Precipitation: 0.00 in    
Historical Graphs
 
 
Tabular Data for April 8, 2017
Time Temperature Dew Point Pressure Wind Wind Speed Wind Gust Humidity Rainfall Rate (Hourly) solar
00:00 44.7 °F 42.2 °F 29.86 in WNW 1.0 mph 19.0 mph 91 % 0.19 in 0.00 W/m2
00:05 43.6 °F 40.9 °F 29.85 in West 3.0 mph 13.0 mph 90 % 0.19 in 0.00 W/m2
00:10 43.3 °F 40.8 °F 29.86 in West 9.0 mph 12.0 mph 91 % 0.20 in 0.00 W/m2
00:15 43.2 °F 40.5 °F 29.85 in WSW 14.0 mph 14.0 mph 90 % 0.24 in 0.00 W/m2
00:20 43.1 °F 40.4 °F 29.85 in WNW 9.0 mph 12.0 mph 90 % 0.24 in 0.00 W/m2
00:25 43.0 °F 40.6 °F 29.85 in WNW 9.0 mph 12.0 mph 91 % 0.22 in 0.00 W/m2
00:35 42.9 °F 40.5 °F 29.85 in WSW 10.0 mph 12.0 mph 91 % 0.24 in 0.00 W/m2
00:40 42.9 °F 40.5 °F 29.86 in WNW 8.0 mph 11.0 mph 91 % 0.20 in 0.00 W/m2
00:45 42.7 °F 40.3 °F 29.86 in West 2.0 mph 17.0 mph 91 % 0.21 in 0.00 W/m2
00:50 42.6 °F 40.2 °F 29.86 in Calm   12.0 mph 91 % 0.23 in 0.00 W/m2
00:55 42.4 °F 40.0 °F 29.86 in West 6.0 mph 10.0 mph 91 % 0.23 in 0.00 W/m2
01:00 42.3 °F 39.9 °F 29.86 in Calm   10.0 mph 91 % 0.23 in 0.00 W/m2
01:05 42.1 °F 39.7 °F 29.87 in Calm   9.0 mph 91 % 0.23 in 0.00 W/m2
01:10 41.8 °F 39.4 °F 29.87 in West 11.0 mph 12.0 mph 91 % 0.19 in 0.00 W/m2
01:15 41.8 °F 39.4 °F 29.87 in Calm   9.0 mph 91 % 0.19 in 0.00 W/m2
01:20 41.7 °F 39.3 °F 29.87 in West 4.0 mph 10.0 mph 91 % 0.19 in 0.00 W/m2
01:25 41.6 °F 39.2 °F 29.86 in Calm   16.0 mph 91 % 0.23 in 0.00 W/m2
01:30 41.5 °F 39.1 °F 29.87 in WSW 5.0 mph 16.0 mph 91 % 0.22 in 0.00 W/m2
01:35 41.5 °F 39.1 °F 29.87 in WSW 5.0 mph 13.0 mph 91 % 0.18 in 0.00 W/m2
01:40 41.5 °F 39.1 °F 29.87 in WSW 3.0 mph 15.0 mph 91 % 0.17 in 0.00 W/m2
01:45 41.4 °F 39.0 °F 29.86 in West 1.0 mph 17.0 mph 91 % 0.21 in 0.00 W/m2
01:50 41.5 °F 39.1 °F 29.86 in SW 7.0 mph 10.0 mph 91 % 0.20 in 0.00 W/m2
01:55 41.6 °F 39.2 °F 29.86 in West 7.0 mph 11.0 mph 91 % 0.17 in 0.00 W/m2
02:01 41.6 °F 39.2 °F 29.87 in SW 5.0 mph 13.0 mph 91 % 0.18 in 0.00 W/m2
02:06 41.7 °F 39.3 °F 29.87 in SW 11.0 mph 13.0 mph 91 % 0.20 in 0.00 W/m2
02:11 41.6 °F 39.2 °F 29.86 in Calm   13.0 mph 91 % 0.16 in 0.00 W/m2
02:16 41.7 °F 39.3 °F 29.87 in WSW 9.0 mph 11.0 mph 91 % 0.16 in 0.00 W/m2
02:21 41.6 °F 39.2 °F 29.88 in SW 8.0 mph 12.0 mph 91 % 0.17 in 0.00 W/m2
02:26 41.5 °F 39.1 °F 29.88 in SSW 10.0 mph 13.0 mph 91 % 0.17 in 0.00 W/m2
02:31 41.4 °F 39.0 °F 29.88 in WSW 7.0 mph 13.0 mph 91 % 0.17 in 0.00 W/m2
02:36 41.2 °F 38.8 °F 29.87 in South 2.0 mph 14.0 mph 91 % 0.18 in 0.00 W/m2
02:41 41.2 °F 38.8 °F 29.88 in SW 8.0 mph 12.0 mph 91 % 0.15 in 0.00 W/m2
02:46 41.2 °F 38.8 °F 29.88 in Calm   15.0 mph 91 % 0.15 in 0.00 W/m2
02:51 41.1 °F 38.7 °F 29.89 in SW 4.0 mph 12.0 mph 91 % 0.16 in 0.00 W/m2
02:56 41.0 °F 38.6 °F 29.89 in Calm   9.0 mph 91 % 0.14 in 0.00 W/m2
03:01 41.0 °F 38.6 °F 29.89 in SSW 8.0 mph 13.0 mph 91 % 0.16 in 0.00 W/m2
03:06 40.8 °F 38.4 °F 29.89 in WSW 5.0 mph 5.0 mph 91 % 0.13 in 0.00 W/m2
03:11 40.6 °F 38.2 °F 29.89 in SW 3.0 mph 3.0 mph 91 % 0.16 in 0.00 W/m2
03:16 40.3 °F 37.9 °F 29.89 in SW 1.0 mph 8.0 mph 91 % 0.14 in 0.00 W/m2
03:21 40.2 °F 37.8 °F 29.90 in Calm     91 % 0.13 in 0.00 W/m2
03:26 40.1 °F 37.7 °F 29.90 in SW 5.0 mph 8.0 mph 91 % 0.12 in 0.00 W/m2
03:31 40.0 °F 37.6 °F 29.91 in WSW 7.0 mph 13.0 mph 91 % 0.13 in 0.00 W/m2
03:36 39.8 °F 37.4 °F 29.91 in SW 3.0 mph 6.0 mph 91 % 0.10 in 0.00 W/m2
03:41 39.7 °F 37.3 °F 29.92 in WSW 11.0 mph 15.0 mph 91 % 0.13 in 0.00 W/m2
03:46 39.6 °F 37.2 °F 29.92 in SW 5.0 mph 6.0 mph 91 % 0.09 in 0.00 W/m2
03:51 39.3 °F 36.9 °F 29.92 in WSW 18.0 mph 19.0 mph 91 % 0.09 in 0.00 W/m2
03:56 39.1 °F 36.7 °F 29.92 in WSW 7.0 mph 7.0 mph 91 % 0.09 in 0.00 W/m2
04:01 39.0 °F 36.6 °F 29.92 in South 6.0 mph 11.0 mph 91 % 0.07 in 0.00 W/m2
04:06 38.9 °F 36.5 °F 29.92 in SW 13.0 mph 13.0 mph 91 % 0.07 in 0.00 W/m2
04:11 39.0 °F 36.6 °F 29.92 in Calm   4.0 mph 91 % 0.05 in 0.00 W/m2
04:16 39.1 °F 36.7 °F 29.92 in Calm     91 % 0.04 in 0.00 W/m2
04:21 39.1 °F 36.7 °F 29.93 in SSW 9.0 mph 9.0 mph 91 % 0.00 in 0.00 W/m2
04:26 39.1 °F 36.7 °F 29.93 in SW 11.0 mph 11.0 mph 91 % 0.00 in 0.00 W/m2
04:31 39.0 °F 36.6 °F 29.93 in WSW 3.0 mph 3.0 mph 91 % 0.00 in 0.00 W/m2
04:36 39.1 °F 36.7 °F 29.93 in WSW 1.0 mph 5.0 mph 91 % 0.00 in 0.00 W/m2
04:41 39.1 °F 36.7 °F 29.93 in SW 5.0 mph 10.0 mph 91 % 0.00 in 0.00 W/m2
04:46 39.1 °F 36.7 °F 29.93 in WSW 11.0 mph 11.0 mph 91 % 0.00 in 0.00 W/m2
04:51 39.1 °F 36.7 °F 29.94 in WSW 7.0 mph 10.0 mph 91 % 0.00 in 0.00 W/m2
04:56 39.0 °F 36.6 °F 29.94 in SW 9.0 mph 9.0 mph 91 % 0.00 in 0.00 W/m2
05:01 38.9 °F 36.5 °F 29.94 in WSW 3.0 mph 9.0 mph 91 % 0.00 in 0.00 W/m2
05:11 38.6 °F 36.2 °F 29.95 in WSW 4.0 mph 6.0 mph 91 % 0.00 in 0.00 W/m2
05:16 38.5 °F 36.1 °F 29.96 in WSW 1.0 mph 6.0 mph 91 % 0.00 in 0.00 W/m2
05:21 38.5 °F 36.1 °F 29.96 in Calm     91 % 0.00 in 0.00 W/m2
05:26 38.5 °F 36.1 °F 29.96 in SSW 3.0 mph 6.0 mph 91 % 0.00 in 0.00 W/m2
05:31 38.5 °F 36.1 °F 29.97 in South 11.0 mph 11.0 mph 91 % 0.00 in 0.00 W/m2
05:37 38.6 °F 36.2 °F 29.97 in South 6.0 mph 8.0 mph 91 % 0.00 in 0.00 W/m2
05:42 38.6 °F 36.2 °F 29.97 in SSW 2.0 mph 8.0 mph 91 % 0.00 in 0.00 W/m2
05:47 38.6 °F 36.2 °F 29.97 in South 6.0 mph 12.0 mph 91 % 0.00 in 0.00 W/m2
05:52 38.5 °F 36.1 °F 29.98 in South 5.0 mph 6.0 mph 91 % 0.00 in 0.00 W/m2
05:57 38.4 °F 36.0 °F 29.98 in Calm     91 % 0.00 in 0.00 W/m2
06:02 38.4 °F 36.0 °F 29.98 in Calm   3.0 mph 91 % 0.00 in 0.00 W/m2
06:07 38.3 °F 35.9 °F 29.98 in SW 6.0 mph 7.0 mph 91 % 0.00 in 0.00 W/m2
06:12 38.2 °F 35.8 °F 29.99 in SW 2.0 mph 11.0 mph 91 % 0.00 in 0.00 W/m2
06:17 38.2 °F 35.8 °F 29.99 in SSW 3.0 mph 9.0 mph 91 % 0.00 in 0.00 W/m2
06:22 38.2 °F 35.8 °F 29.99 in South 2.0 mph 9.0 mph 91 % 0.00 in 0.00 W/m2
06:27 38.1 °F 35.7 °F 29.99 in South 6.0 mph 8.0 mph 91 % 0.00 in 0.00 W/m2
06:32 38.0 °F 35.6 °F 30.00 in Calm   4.0 mph 91 % 0.00 in 0.00 W/m2
06:37 38.0 °F 35.6 °F 30.00 in Calm   8.0 mph 91 % 0.00 in 0.00 W/m2
06:42 37.9 °F 35.5 °F 30.01 in SSW 4.0 mph 9.0 mph 91 % 0.00 in 0.00 W/m2
06:47 37.9 °F 35.5 °F 30.01 in SSW 3.0 mph 11.0 mph 91 % 0.00 in 0.00 W/m2
06:52 37.9 °F 35.5 °F 30.01 in South 8.0 mph 9.0 mph 91 % 0.00 in 5.00 W/m2
06:57 37.8 °F 35.4 °F 30.01 in South 9.0 mph 12.0 mph 91 % 0.00 in 7.00 W/m2
07:02 37.8 °F 35.4 °F 30.02 in SSE 10.0 mph 11.0 mph 91 % 0.00 in 7.00 W/m2
07:07 37.8 °F 35.4 °F 30.01 in SSE 4.0 mph 13.0 mph 91 % 0.00 in 9.00 W/m2
07:12 37.7 °F 35.3 °F 30.02 in SSE 5.0 mph 9.0 mph 91 % 0.00 in 9.00 W/m2
07:17 37.7 °F 35.3 °F 30.02 in Calm   12.0 mph 91 % 0.00 in 12.00 W/m2
07:22 37.7 °F 35.3 °F 30.02 in South 5.0 mph 9.0 mph 91 % 0.00 in 14.00 W/m2
07:27 37.6 °F 35.2 °F 30.02 in SE 13.0 mph 13.0 mph 91 % 0.00 in 23.00 W/m2
07:32 37.5 °F 35.1 °F 30.02 in SSE 4.0 mph 12.0 mph 91 % 0.00 in 23.00 W/m2
07:37 37.5 °F 35.1 °F 30.02 in SSE 4.0 mph 12.0 mph 91 % 0.00 in 23.00 W/m2
07:42 37.5 °F 35.1 °F 30.03 in South 9.0 mph 12.0 mph 91 % 0.00 in 21.00 W/m2
07:52 37.5 °F 35.1 °F 30.03 in SSE 7.0 mph 8.0 mph 91 % 0.00 in 25.00 W/m2
07:57 37.5 °F 35.1 °F 30.03 in South 12.0 mph 12.0 mph 91 % 0.00 in 18.00 W/m2
08:02 37.5 °F 35.1 °F 30.03 in SSE 7.0 mph 12.0 mph 91 % 0.00 in 26.00 W/m2
08:07 37.5 °F 35.1 °F 30.03 in SSE 5.0 mph 11.0 mph 91 % 0.00 in 46.00 W/m2
08:12 37.5 °F 35.1 °F 30.03 in SSE 11.0 mph 13.0 mph 91 % 0.00 in 40.00 W/m2
08:17 37.5 °F 35.1 °F 30.04 in South 7.0 mph 16.0 mph 91 % 0.00 in 47.00 W/m2
08:22 37.5 °F 35.1 °F 30.04 in SSE 7.0 mph 15.0 mph 91 % 0.00 in 49.00 W/m2
08:26 37.5 °F 35.1 °F 30.04 in SSE 13.0 mph 16.0 mph 91 % 0.00 in 60.00 W/m2
08:31 37.5 °F 35.1 °F 30.04 in SSE 7.0 mph 13.0 mph 91 % 0.00 in 35.00 W/m2
08:41 37.5 °F 35.1 °F 30.05 in SSE 7.0 mph 13.0 mph 91 % 0.00 in 32.00 W/m2
08:46 37.5 °F 35.1 °F 30.05 in South 10.0 mph 12.0 mph 91 % 0.00 in 44.00 W/m2
08:51 37.5 °F 35.1 °F 30.05 in South 6.0 mph 13.0 mph 91 % 0.00 in 35.00 W/m2
08:56 37.5 °F 35.1 °F 30.05 in South 4.0 mph 13.0 mph 91 % 0.00 in 39.00 W/m2
09:01 37.4 °F 35.0 °F 30.06 in South 7.0 mph 13.0 mph 91 % 0.00 in 67.00 W/m2
09:06 37.4 °F 35.0 °F 30.06 in South 6.0 mph 13.0 mph 91 % 0.00 in 63.00 W/m2
09:11 37.4 °F 35.0 °F 30.06 in South 5.0 mph 12.0 mph 91 % 0.00 in 93.00 W/m2
09:16 37.4 °F 35.0 °F 30.06 in South 7.0 mph 11.0 mph 91 % 0.00 in 113.00 W/m2
09:21 37.5 °F 35.1 °F 30.06 in South 4.0 mph 11.0 mph 91 % 0.00 in 120.00 W/m2
09:26 37.5 °F 35.1 °F 30.07 in South 9.0 mph 12.0 mph 91 % 0.00 in 148.00 W/m2
09:27 37.5 °F 35.1 °F 30.06 in South 8.0 mph 9.0 mph 91 % 0.00 in 169.00 W/m2
09:32 37.6 °F 35.2 °F 30.07 in South 1.0 mph 10.0 mph 91 % 0.00 in 178.00 W/m2
09:37 37.8 °F 35.4 °F 30.07 in Calm     91 % 0.00 in 181.00 W/m2
09:47 38.2 °F 36.1 °F 30.07 in South 7.0 mph 9.0 mph 92 % 0.00 in 255.00 W/m2
09:52 38.4 °F 36.0 °F 30.08 in South 10.0 mph 11.0 mph 91 % 0.00 in 248.00 W/m2
09:57 38.5 °F 36.1 °F 30.08 in South 8.0 mph 9.0 mph 91 % 0.00 in 151.00 W/m2
10:02 38.6 °F 36.2 °F 30.08 in South 8.0 mph 8.0 mph 91 % 0.00 in 234.00 W/m2
10:07 38.7 °F 36.6 °F 30.08 in SSW 3.0 mph 8.0 mph 92 % 0.00 in 264.00 W/m2
10:12 38.8 °F 36.7 °F 30.09 in SSW 12.0 mph 12.0 mph 92 % 0.00 in 232.00 W/m2
10:17 38.7 °F 36.6 °F 30.09 in SSW 1.0 mph 9.0 mph 92 % 0.00 in 186.00 W/m2
10:22 38.7 °F 36.6 °F 30.09 in South 4.0 mph 9.0 mph 92 % 0.00 in 200.00 W/m2
10:27 38.7 °F 36.6 °F 30.09 in SW 2.0 mph 5.0 mph 92 % 0.00 in 202.00 W/m2
10:32 38.7 °F 36.3 °F 30.09 in SSW 9.0 mph 9.0 mph 91 % 0.00 in 229.00 W/m2
10:37 38.7 °F 36.3 °F 30.10 in Calm   6.0 mph 91 % 0.00 in 250.00 W/m2
10:42 38.7 °F 36.3 °F 30.10 in Calm   4.0 mph 91 % 0.00 in 250.00 W/m2
10:47 38.6 °F 36.2 °F 30.10 in SSW 5.0 mph 7.0 mph 91 % 0.00 in 267.00 W/m2
10:52 38.7 °F 36.3 °F 30.10 in SSW 5.0 mph 8.0 mph 91 % 0.00 in 272.00 W/m2
10:57 38.7 °F 36.3 °F 30.10 in SSW 7.0 mph 7.0 mph 91 % 0.00 in 276.00 W/m2
11:02 38.8 °F 36.4 °F 30.11 in Calm   7.0 mph 91 % 0.00 in 350.00 W/m2
11:07 38.8 °F 36.4 °F 30.11 in South 5.0 mph 7.0 mph 91 % 0.00 in 241.00 W/m2
11:12 38.9 °F 36.5 °F 30.11 in South 3.0 mph 8.0 mph 91 % 0.00 in 214.00 W/m2
11:17 38.9 °F 36.5 °F 30.11 in SSW 10.0 mph 10.0 mph 91 % 0.00 in 267.00 W/m2
11:22 39.0 °F 36.6 °F 30.11 in SSW 3.0 mph 6.0 mph 91 % 0.00 in 236.00 W/m2
11:27 39.0 °F 36.6 °F 30.10 in Calm     91 % 0.00 in 188.00 W/m2
11:32 39.0 °F 36.6 °F 30.11 in Calm   8.0 mph 91 % 0.00 in 144.00 W/m2
11:37 39.0 °F 36.6 °F 30.11 in Calm   7.0 mph 91 % 0.00 in 153.00 W/m2
11:42 38.9 °F 36.5 °F 30.11 in South 5.0 mph 9.0 mph 91 % 0.00 in 141.00 W/m2
11:47 38.9 °F 36.5 °F 30.11 in South 7.0 mph 11.0 mph 91 % 0.00 in 63.00 W/m2
11:52 38.3 °F 35.9 °F 30.11 in Calm     91 % 0.00 in 56.00 W/m2
11:57 38.0 °F 35.6 °F 30.11 in Calm     91 % 0.00 in 67.00 W/m2
12:02 37.9 °F 35.5 °F 30.12 in Calm     91 % 0.00 in 51.00 W/m2
12:07 37.7 °F 35.3 °F 30.12 in Calm   10.0 mph 91 % 0.00 in 60.00 W/m2
12:17 37.5 °F 35.1 °F 30.13 in Calm     91 % 0.00 in 30.00 W/m2
12:22 37.2 °F 34.8 °F 30.13 in Calm   10.0 mph 91 % 0.00 in 33.00 W/m2
12:27 37.0 °F 34.6 °F 30.13 in Calm   6.0 mph 91 % 0.00 in 37.00 W/m2
12:32 36.6 °F 34.2 °F 30.13 in Calm   4.0 mph 91 % 0.00 in 47.00 W/m2
12:37 36.3 °F 33.9 °F 30.13 in Calm     91 % 0.00 in 53.00 W/m2
12:42 36.0 °F 33.6 °F 30.13 in Calm     91 % 0.00 in 49.00 W/m2
12:47 35.7 °F 33.3 °F 30.14 in Calm     91 % 0.00 in 42.00 W/m2
12:52 35.5 °F 33.1 °F 30.14 in Calm     91 % 0.00 in 40.00 W/m2
12:53 35.5 °F 33.1 °F 30.14 in Calm     91 % 0.00 in 40.00 W/m2
12:58 35.2 °F 32.8 °F 30.14 in Calm     91 % 0.00 in 42.00 W/m2
13:03 35.0 °F 32.6 °F 30.14 in Calm     91 % 0.00 in 44.00 W/m2
13:08 34.8 °F 32.5 °F 30.14 in Calm     91 % 0.00 in 51.00 W/m2
13:09 34.7 °F 32.3 °F 30.14 in Calm     91 % 0.00 in 53.00 W/m2
13:14 34.6 °F 32.2 °F 30.14 in Calm     91 % 0.00 in 49.00 W/m2
13:19 34.4 °F 32.0 °F 30.13 in Calm     91 % 0.00 in 56.00 W/m2
13:24 34.3 °F 32.0 °F 30.13 in Calm     91 % 0.00 in 116.00 W/m2
13:29 34.2 °F 31.9 °F 30.13 in Calm     91 % 0.00 in 230.00 W/m2
13:34 34.2 °F 31.9 °F 30.13 in Calm     91 % 0.00 in 350.00 W/m2
13:39 34.4 °F 32.0 °F 30.13 in Calm     91 % 0.00 in 385.00 W/m2
13:44 34.5 °F 32.2 °F 30.13 in ESE 6.0 mph 8.0 mph 91 % 0.00 in 473.00 W/m2
13:49 34.7 °F 32.3 °F 30.13 in ESE 7.0 mph 11.0 mph 91 % 0.00 in 471.00 W/m2
13:54 34.9 °F 32.5 °F 30.13 in Calm   9.0 mph 91 % 0.00 in 429.00 W/m2
14:00 35.1 °F 32.7 °F 30.14 in SE 7.0 mph 12.0 mph 91 % 0.00 in 288.00 W/m2
14:05 35.2 °F 32.8 °F 30.14 in SE 1.0 mph 8.0 mph 91 % 0.00 in 211.00 W/m2
14:10 35.3 °F 32.9 °F 30.13 in Calm   12.0 mph 91 % 0.00 in 313.00 W/m2
14:15 35.4 °F 33.0 °F 30.13 in Calm   12.0 mph 91 % 0.00 in 411.00 W/m2
14:20 35.5 °F 33.1 °F 30.14 in Calm     91 % 0.00 in 274.00 W/m2
14:25 35.6 °F 33.2 °F 30.14 in Calm     91 % 0.00 in 225.00 W/m2
14:30 35.8 °F 33.4 °F 30.14 in Calm     91 % 0.00 in 214.00 W/m2
14:35 35.9 °F 33.5 °F 30.14 in Calm     91 % 0.08 in 246.00 W/m2
14:40 36.0 °F 33.6 °F 30.14 in Calm     91 % 0.16 in 248.00 W/m2
14:45 36.1 °F 33.7 °F 30.14 in Calm     91 % 0.14 in 322.00 W/m2
14:50 36.3 °F 33.9 °F 30.14 in Calm     91 % 0.17 in 415.00 W/m2
14:55 36.5 °F 34.1 °F 30.14 in Calm     91 % 0.14 in 517.00 W/m2
15:00 36.7 °F 34.3 °F 30.14 in Calm     91 % 0.15 in 432.00 W/m2
15:05 37.0 °F 34.6 °F 30.14 in SE 6.0 mph 11.0 mph 91 % 0.18 in 758.00 W/m2
15:10 37.5 °F 35.1 °F 30.14 in Calm   11.0 mph 91 % 0.13 in 492.00 W/m2
15:15 38.0 °F 35.6 °F 30.15 in Calm   1.0 mph 91 % 0.20 in 350.00 W/m2
15:20 38.1 °F 35.7 °F 30.15 in Calm   9.0 mph 91 % 0.19 in 221.00 W/m2
15:25 38.2 °F 35.8 °F 30.15 in Calm   7.0 mph 91 % 0.15 in 250.00 W/m2
15:30 38.2 °F 35.8 °F 30.15 in Calm   8.0 mph 91 % 0.17 in 257.00 W/m2
15:35 38.3 °F 35.9 °F 30.15 in Calm     91 % 0.13 in 162.00 W/m2
15:40 38.4 °F 36.0 °F 30.15 in Calm     91 % 0.08 in 330.00 W/m2
15:45 38.4 °F 36.0 °F 30.15 in Calm     91 % 0.05 in 410.00 W/m2
15:50 38.6 °F 36.2 °F 30.15 in Calm     91 % 0.00 in 566.00 W/m2
15:55 38.7 °F 36.3 °F 30.16 in Calm     91 % 0.00 in 352.00 W/m2
16:00 38.8 °F 36.4 °F 30.16 in Calm     91 % 0.00 in 213.00 W/m2
16:05 38.9 °F 36.5 °F 30.16 in Calm     91 % 0.00 in 197.00 W/m2
16:10 38.9 °F 36.5 °F 30.16 in Calm     91 % 0.00 in 290.00 W/m2
16:15 39.0 °F 36.6 °F 30.16 in Calm     91 % 0.00 in 120.00 W/m2
16:20 39.1 °F 36.7 °F 30.16 in Calm     91 % 0.00 in 153.00 W/m2
16:25 39.0 °F 36.6 °F 30.17 in Calm     91 % 0.00 in 160.00 W/m2
16:30 39.1 °F 36.7 °F 30.17 in Calm     91 % 0.00 in 158.00 W/m2
16:35 39.1 °F 36.7 °F 30.17 in Calm     91 % 0.00 in 97.00 W/m2
16:40 39.1 °F 36.7 °F 30.17 in Calm     91 % 0.00 in 195.00 W/m2
16:45 39.1 °F 36.7 °F 30.17 in Calm     91 % 0.00 in 158.00 W/m2
16:50 39.1 °F 36.7 °F 30.18 in Calm     91 % 0.00 in 116.00 W/m2
16:56 39.1 °F 36.7 °F 30.18 in Calm     91 % 0.00 in 72.00 W/m2
17:01 39.1 °F 36.7 °F 30.18 in Calm     91 % 0.00 in 155.00 W/m2
17:06 39.2 °F 36.8 °F 30.18 in Calm     91 % 0.00 in 197.00 W/m2
17:11 39.2 °F 36.8 °F 30.18 in Calm     91 % 0.00 in 207.00 W/m2
17:16 39.1 °F 36.7 °F 30.18 in Calm     91 % 0.00 in 181.00 W/m2
17:21 39.1 °F 36.7 °F 30.18 in Calm     91 % 0.00 in 311.00 W/m2
17:26 39.1 °F 36.7 °F 30.18 in Calm     91 % 0.00 in 255.00 W/m2
17:31 39.1 °F 36.7 °F 30.18 in Calm     91 % 0.00 in 221.00 W/m2
17:36 39.2 °F 36.8 °F 30.18 in Calm     91 % 0.00 in 153.00 W/m2
17:41 39.3 °F 36.9 °F 30.18 in Calm     91 % 0.00 in 197.00 W/m2
17:46 39.4 °F 37.0 °F 30.18 in Calm     91 % 0.00 in 132.00 W/m2
17:51 39.4 °F 37.0 °F 30.18 in Calm     91 % 0.00 in 134.00 W/m2
17:56 39.5 °F 37.1 °F 30.18 in Calm     91 % 0.00 in 107.00 W/m2
18:01 39.5 °F 37.1 °F 30.18 in Calm     91 % 0.00 in 105.00 W/m2
18:06 39.5 °F 37.1 °F 30.19 in Calm     91 % 0.00 in 91.00 W/m2
18:11 39.6 °F 37.2 °F 30.19 in Calm     91 % 0.00 in 62.00 W/m2
18:16 39.6 °F 37.2 °F 30.19 in Calm     91 % 0.00 in 91.00 W/m2
18:21 39.7 °F 37.3 °F 30.19 in Calm     91 % 0.00 in 79.00 W/m2
18:26 39.7 °F 37.3 °F 30.19 in Calm     91 % 0.00 in 113.00 W/m2
18:36 39.8 °F 37.4 °F 30.19 in Calm     91 % 0.00 in 58.00 W/m2
18:41 39.9 °F 37.5 °F 30.19 in Calm     91 % 0.00 in 53.00 W/m2
18:46 39.9 °F 37.5 °F 30.20 in Calm     91 % 0.00 in 47.00 W/m2
18:51 39.9 °F 37.5 °F 30.20 in Calm     91 % 0.00 in 69.00 W/m2
18:56 39.8 °F 37.4 °F 30.20 in Calm     91 % 0.00 in 62.00 W/m2
19:01 39.8 °F 37.4 °F 30.20 in Calm     91 % 0.00 in 44.00 W/m2
19:06 39.7 °F 37.3 °F 30.20 in Calm     91 % 0.00 in 35.00 W/m2
19:11 39.6 °F 37.2 °F 30.20 in Calm     91 % 0.00 in 30.00 W/m2
19:16 39.5 °F 37.1 °F 30.20 in Calm     91 % 0.00 in 21.00 W/m2
19:21 39.5 °F 37.1 °F 30.20 in Calm     91 % 0.00 in 14.00 W/m2
19:26 39.3 °F 36.9 °F 30.21 in Calm     91 % 0.00 in 11.00 W/m2
19:31 39.2 °F 36.8 °F 30.21 in Calm     91 % 0.00 in 7.00 W/m2
19:36 39.1 °F 36.7 °F 30.21 in Calm     91 % 0.00 in 5.00 W/m2
19:41 38.9 °F 36.5 °F 30.21 in Calm     91 % 0.00 in 0.00 W/m2
19:46 38.8 °F 36.4 °F 30.21 in Calm     91 % 0.00 in 0.00 W/m2
19:51 38.6 °F 36.2 °F 30.22 in Calm     91 % 0.00 in 0.00 W/m2
19:56 38.4 °F 36.0 °F 30.22 in Calm     91 % 0.00 in 0.00 W/m2
20:01 38.3 °F 35.9 °F 30.22 in Calm     91 % 0.00 in 0.00 W/m2
20:06 38.1 °F 35.7 °F 30.22 in Calm     91 % 0.00 in 0.00 W/m2
20:11 38.0 °F 35.6 °F 30.22 in Calm     91 % 0.00 in 0.00 W/m2
20:16 37.9 °F 35.5 °F 30.22 in Calm     91 % 0.00 in 0.00 W/m2
20:18 37.9 °F 35.5 °F 30.22 in Calm     91 % 0.00 in 0.00 W/m2
20:23 37.9 °F 35.5 °F 30.22 in Calm     91 % 0.00 in 0.00 W/m2
20:28 37.8 °F 35.4 °F 30.23 in Calm     91 % 0.00 in 0.00 W/m2
20:33 37.7 °F 35.3 °F 30.23 in Calm     91 % 0.00 in 0.00 W/m2
20:38 37.7 °F 35.3 °F 30.23 in Calm     91 % 0.00 in 0.00 W/m2
20:43 37.5 °F 35.1 °F 30.23 in Calm     91 % 0.00 in 0.00 W/m2
20:48 37.4 °F 35.0 °F 30.23 in Calm     91 % 0.00 in 0.00 W/m2
20:53 37.4 °F 35.0 °F 30.23 in Calm     91 % 0.00 in 0.00 W/m2
20:58 37.2 °F 34.8 °F 30.23 in Calm     91 % 0.00 in 0.00 W/m2
21:03 37.1 °F 34.7 °F 30.24 in Calm     91 % 0.00 in 0.00 W/m2
21:08 37.0 °F 34.6 °F 30.24 in Calm     91 % 0.00 in 0.00 W/m2
21:13 37.0 °F 34.6 °F 30.24 in Calm     91 % 0.00 in 0.00 W/m2
21:18 36.8 °F 34.4 °F 30.24 in Calm     91 % 0.00 in 0.00 W/m2
21:23 36.8 °F 34.4 °F 30.24 in Calm     91 % 0.00 in 0.00 W/m2
21:28 36.7 °F 34.3 °F 30.25 in Calm     91 % 0.00 in 0.00 W/m2
21:31 36.6 °F 34.2 °F 30.24 in Calm     91 % 0.00 in 0.00 W/m2
21:36 36.5 °F 34.1 °F 30.24 in Calm     91 % 0.00 in 0.00 W/m2
21:41 36.4 °F 34.0 °F 30.25 in Calm     91 % 0.00 in 0.00 W/m2
21:46 36.4 °F 34.0 °F 30.25 in Calm     91 % 0.00 in 0.00 W/m2
21:51 36.3 °F 33.9 °F 30.25 in Calm     91 % 0.00 in 0.00 W/m2
21:56 36.2 °F 33.8 °F 30.25 in Calm     91 % 0.00 in 0.00 W/m2
22:01 36.2 °F 33.8 °F 30.25 in Calm     91 % 0.00 in 0.00 W/m2
22:06 36.1 °F 33.7 °F 30.25 in Calm     91 % 0.00 in 0.00 W/m2
22:11 36.1 °F 33.7 °F 30.25 in ESE 1.0 mph 2.0 mph 91 % 0.00 in 0.00 W/m2
22:16 36.0 °F 33.6 °F 30.25 in Calm     91 % 0.00 in 0.00 W/m2
22:21 36.0 °F 33.6 °F 30.25 in Calm     91 % 0.00 in 0.00 W/m2
22:26 36.0 °F 33.6 °F 30.26 in Calm     91 % 0.00 in 0.00 W/m2
22:31 35.9 °F 33.5 °F 30.26 in Calm     91 % 0.00 in 0.00 W/m2
22:36 35.9 °F 33.5 °F 30.26 in Calm     91 % 0.00 in 0.00 W/m2
22:41 35.9 °F 33.5 °F 30.26 in Calm     91 % 0.00 in 0.00 W/m2
22:46 35.8 °F 33.4 °F 30.26 in Calm     91 % 0.00 in 0.00 W/m2
22:51 35.7 °F 33.3 °F 30.26 in Calm   4.0 mph 91 % 0.00 in 0.00 W/m2
22:56 35.7 °F 33.3 °F 30.26 in ESE 5.0 mph 5.0 mph 91 % 0.00 in 0.00 W/m2
23:01 35.7 °F 33.3 °F 30.26 in ESE 2.0 mph 4.0 mph 91 % 0.00 in 0.00 W/m2
23:06 35.6 °F 33.2 °F 30.26 in Calm     91 % 0.00 in 0.00 W/m2
23:11 35.6 °F 33.2 °F 30.26 in Calm     91 % 0.00 in 0.00 W/m2
23:16 35.6 °F 33.2 °F 30.26 in ESE 6.0 mph 6.0 mph 91 % 0.00 in 0.00 W/m2
23:21 35.5 °F 33.1 °F 30.26 in Calm   4.0 mph 91 % 0.00 in 0.00 W/m2
23:31 35.5 °F 33.1 °F 30.25 in Calm   4.0 mph 91 % 0.00 in 0.00 W/m2
23:36 35.4 °F 33.0 °F 30.25 in Calm     91 % 0.00 in 0.00 W/m2
23:41 35.3 °F 32.9 °F 30.25 in Calm     91 % 0.00 in 0.00 W/m2
23:46 35.3 °F 32.9 °F 30.25 in Calm     91 % 0.00 in 0.00 W/m2
23:51 35.3 °F 32.9 °F 30.25 in Calm     91 % 0.00 in 0.00 W/m2
23:56 35.3 °F 32.9 °F 30.25 in ESE 4.0 mph 6.0 mph 91 % 0.00 in 0.00 W/m2
Juneau County Weather
Compliments of Weather Underground - 4.5 mb
 WU-history PHP script courtesy of   Juneau County Weather.
powered by Cumulus v1.9.3 (1059)
Ambient Weather VWS v14.00
Top Contact Website Map Copyright © 2007 - 2018 Foresthillweather.com Never base important decisions on this or any weather information obtained from the Internet